createdAt,value
2023-12-23T00:00:03.718Z,956.6200
2023-12-23T00:00:14.792Z,956.5400
2023-12-23T00:00:25.878Z,956.5200
2023-12-23T00:00:36.984Z,956.5200
2023-12-23T00:00:48.032Z,956.5000
2023-12-23T00:00:59.113Z,956.5200
2023-12-23T00:01:10.311Z,956.5000
2023-12-23T00:01:21.475Z,956.4800
2023-12-23T00:01:32.550Z,956.4600
2023-12-23T00:01:43.599Z,956.4600
2023-12-23T00:01:54.821Z,956.4400
2023-12-23T00:02:06.256Z,956.4400
2023-12-23T00:02:17.392Z,956.4400
2023-12-23T00:02:28.518Z,956.4400
2023-12-23T00:02:39.553Z,956.4400
2023-12-23T00:02:50.618Z,956.4800
2023-12-23T00:03:01.699Z,956.4600
2023-12-23T00:03:12.764Z,956.4800
2023-12-23T00:03:23.888Z,956.4800
2023-12-23T00:03:34.971Z,956.4800
2023-12-23T00:03:46.173Z,956.4800
2023-12-23T00:03:57.319Z,956.4600
2023-12-23T00:04:08.382Z,956.4400
2023-12-23T00:04:19.443Z,956.4400
2023-12-23T00:04:30.502Z,956.4200
2023-12-23T00:04:41.599Z,956.4200
2023-12-23T00:04:52.802Z,956.4400
2023-12-23T00:05:04.022Z,956.4400
2023-12-23T00:05:15.130Z,956.4600
2023-12-23T00:05:26.528Z,956.4200
2023-12-23T00:05:37.708Z,956.3900
2023-12-23T00:05:48.832Z,956.3900
2023-12-23T00:06:00.014Z,956.4000
2023-12-23T00:06:11.305Z,956.4000
2023-12-23T00:06:22.480Z,956.3900
2023-12-23T00:06:33.539Z,956.3900
2023-12-23T00:06:44.592Z,956.3900
2023-12-23T00:06:55.674Z,956.3900
2023-12-23T00:07:06.725Z,956.3900
2023-12-23T00:07:17.792Z,956.4000
2023-12-23T00:07:28.864Z,956.3900
2023-12-23T00:07:39.968Z,956.3900
2023-12-23T00:07:51.308Z,956.3900
2023-12-23T00:08:02.730Z,956.3900
2023-12-23T00:08:13.898Z,956.3700
2023-12-23T00:08:26.664Z,956.3700
2023-12-23T00:08:39.508Z,956.3900
2023-12-23T00:08:50.534Z,956.3900
2023-12-23T00:09:01.594Z,956.4000
2023-12-23T00:09:12.664Z,956.4000
2023-12-23T00:09:23.707Z,956.3900
2023-12-23T00:09:34.745Z,956.3900
2023-12-23T00:09:45.853Z,956.3900
2023-12-23T00:09:56.922Z,956.4000
2023-12-23T00:10:08.023Z,956.4200
2023-12-23T00:10:19.141Z,956.4000
2023-12-23T00:10:30.187Z,956.3700
2023-12-23T00:10:41.349Z,956.4200
2023-12-23T00:10:52.436Z,956.4200
2023-12-23T00:11:03.546Z,956.4400
2023-12-23T00:11:14.641Z,956.4200
2023-12-23T00:11:25.795Z,956.4200
2023-12-23T00:11:36.882Z,956.4000
2023-12-23T00:11:47.979Z,956.4000
2023-12-23T00:11:59.063Z,956.4000
2023-12-23T00:12:10.295Z,956.3900
2023-12-23T00:12:21.592Z,956.3900
2023-12-23T00:12:32.837Z,956.3900
2023-12-23T00:12:44.023Z,956.3900
2023-12-23T00:12:55.075Z,956.3900
2023-12-23T00:13:06.118Z,956.3900
2023-12-23T00:13:17.181Z,956.4000
2023-12-23T00:13:28.245Z,956.3900
2023-12-23T00:13:39.305Z,956.4000
2023-12-23T00:13:50.395Z,956.4000
2023-12-23T00:14:01.515Z,956.3900
2023-12-23T00:14:12.688Z,956.3300
2023-12-23T00:14:23.757Z,956.3300
2023-12-23T00:14:34.820Z,956.3500
2023-12-23T00:14:45.916Z,956.3900
2023-12-23T00:14:56.977Z,956.3900
2023-12-23T00:15:08.034Z,956.3900
2023-12-23T00:15:19.104Z,956.3900
2023-12-23T00:15:30.174Z,956.4000
2023-12-23T00:15:41.219Z,956.4200
2023-12-23T00:15:52.281Z,956.4200
2023-12-23T00:16:03.333Z,956.4000
2023-12-23T00:16:14.414Z,956.4000
2023-12-23T00:16:25.460Z,956.4200
2023-12-23T00:16:36.535Z,956.4400
2023-12-23T00:16:47.602Z,956.4200
2023-12-23T00:16:58.797Z,956.4000
2023-12-23T00:17:09.978Z,956.3900
2023-12-23T00:17:21.422Z,956.4000
2023-12-23T00:17:32.860Z,956.4000
2023-12-23T00:17:48.418Z,956.4000
2023-12-23T00:18:01.666Z,956.4400
2023-12-23T00:18:13.360Z,956.4800
2023-12-23T00:18:24.752Z,956.5000
2023-12-23T00:18:36.432Z,956.4800
2023-12-23T00:18:47.947Z,956.4800
2023-12-23T00:18:59.268Z,956.4800
2023-12-23T00:19:10.815Z,956.4800
2023-12-23T00:19:22.239Z,956.5000
2023-12-23T00:19:33.718Z,956.5000
2023-12-23T00:19:45.228Z,956.5000
2023-12-23T00:19:56.611Z,956.5200
2023-12-23T00:20:07.974Z,956.5200
2023-12-23T00:20:19.417Z,956.5200
2023-12-23T00:20:30.884Z,956.5000
2023-12-23T00:20:42.079Z,956.5000
2023-12-23T00:20:53.358Z,956.5200
2023-12-23T00:21:04.596Z,956.5200
2023-12-23T00:21:26.762Z,956.4800
2023-12-23T00:21:37.829Z,956.4800
2023-12-23T00:21:48.958Z,956.4600
2023-12-23T00:22:00.020Z,956.4800
2023-12-23T00:22:11.088Z,956.4800
2023-12-23T00:22:22.238Z,956.5000
2023-12-23T00:22:33.307Z,956.5000
2023-12-23T00:22:44.363Z,956.5000
2023-12-23T00:22:55.481Z,956.5200
2023-12-23T00:23:06.557Z,956.5000
2023-12-23T00:23:17.716Z,956.4400
2023-12-23T00:23:28.852Z,956.4200
2023-12-23T00:23:39.930Z,956.4600
2023-12-23T00:23:51.001Z,956.4800
2023-12-23T00:24:02.062Z,956.4800
2023-12-23T00:24:13.123Z,956.4400
2023-12-23T00:24:24.198Z,956.4400
2023-12-23T00:24:35.243Z,956.4400
2023-12-23T00:24:46.315Z,956.4400
2023-12-23T00:24:57.401Z,956.4400
2023-12-23T00:25:08.434Z,956.4400
2023-12-23T00:25:19.510Z,956.4600
2023-12-23T00:25:30.553Z,956.4600
2023-12-23T00:25:41.715Z,956.4800
2023-12-23T00:25:52.916Z,956.4400
2023-12-23T00:26:04.060Z,956.4800
2023-12-23T00:26:15.258Z,956.5000
2023-12-23T00:26:26.295Z,956.5000
2023-12-23T00:26:37.361Z,956.5000
2023-12-23T00:26:48.422Z,956.5000
2023-12-23T00:26:59.473Z,956.5200
2023-12-23T00:27:10.503Z,956.5400
2023-12-23T00:27:21.581Z,956.6200
2023-12-23T00:27:32.693Z,956.6200
2023-12-23T00:27:43.752Z,956.5200
2023-12-23T00:27:54.815Z,956.5200
2023-12-23T00:28:05.861Z,956.5200
2023-12-23T00:28:16.915Z,956.5200
2023-12-23T00:28:27.958Z,956.5000
2023-12-23T00:28:39.022Z,956.5000
2023-12-23T00:28:50.168Z,956.4800
2023-12-23T00:29:01.233Z,956.4800
2023-12-23T00:29:12.355Z,956.4800
2023-12-23T00:29:23.512Z,956.4800
2023-12-23T00:29:34.554Z,956.4600
2023-12-23T00:29:45.673Z,956.4800
2023-12-23T00:29:56.741Z,956.4800
2023-12-23T00:30:07.834Z,956.4800
2023-12-23T00:30:18.966Z,956.4800
2023-12-23T00:30:30.126Z,956.4800
2023-12-23T00:30:41.210Z,956.4800
2023-12-23T00:30:52.285Z,956.5000
2023-12-23T00:31:03.360Z,956.5000
2023-12-23T00:31:14.418Z,956.5000
2023-12-23T00:31:25.481Z,956.5000
2023-12-23T00:31:36.577Z,956.5200
2023-12-23T00:31:47.675Z,956.5000
2023-12-23T00:31:58.802Z,956.5000
2023-12-23T00:32:09.896Z,956.5200
2023-12-23T00:32:20.961Z,956.5000
2023-12-23T00:32:32.049Z,956.4800
2023-12-23T00:32:43.156Z,956.5200
2023-12-23T00:32:54.226Z,956.5200
2023-12-23T00:33:05.400Z,956.5200
2023-12-23T00:33:16.615Z,956.5400
2023-12-23T00:33:27.798Z,956.5400
2023-12-23T00:33:38.958Z,956.5000
2023-12-23T00:33:50.106Z,956.5000
2023-12-23T00:34:01.246Z,956.5000
2023-12-23T00:34:12.310Z,956.5200
2023-12-23T00:34:23.392Z,956.5400
2023-12-23T00:34:34.486Z,956.5200
2023-12-23T00:34:45.548Z,956.5000
2023-12-23T00:34:56.690Z,956.4800
2023-12-23T00:35:07.925Z,956.4800
2023-12-23T00:35:19.140Z,956.4600
2023-12-23T00:35:30.291Z,956.5000
2023-12-23T00:35:41.340Z,956.5000
2023-12-23T00:35:52.423Z,956.5000
2023-12-23T00:36:03.494Z,956.5000
2023-12-23T00:36:14.568Z,956.4800
2023-12-23T00:36:25.635Z,956.5000
2023-12-23T00:36:36.706Z,956.5200
2023-12-23T00:36:47.753Z,956.5200
2023-12-23T00:36:58.844Z,956.5400
2023-12-23T00:37:09.912Z,956.6200
2023-12-23T00:37:21.014Z,956.6200
2023-12-23T00:37:32.105Z,956.5400
2023-12-23T00:37:43.172Z,956.5400
2023-12-23T00:37:54.289Z,956.6200
2023-12-23T00:38:05.433Z,956.6200
2023-12-23T00:38:16.537Z,956.6200
2023-12-23T00:38:27.645Z,956.5400
2023-12-23T00:38:38.727Z,956.6200
2023-12-23T00:38:49.763Z,956.6200
2023-12-23T00:39:00.834Z,956.6200
2023-12-23T00:39:11.899Z,956.6200
2023-12-23T00:39:22.961Z,956.5400
2023-12-23T00:39:34.108Z,956.5400
2023-12-23T00:39:45.167Z,956.5400
2023-12-23T00:39:56.233Z,956.6200
2023-12-23T00:40:07.330Z,956.6400
2023-12-23T00:40:18.394Z,956.6600
2023-12-23T00:40:29.460Z,956.6400
2023-12-23T00:40:40.566Z,956.6200
2023-12-23T00:40:51.664Z,956.6200
2023-12-23T00:41:02.725Z,956.6400
2023-12-23T00:41:13.959Z,956.6400
2023-12-23T00:41:25.033Z,956.6400
2023-12-23T00:41:36.089Z,956.6400
2023-12-23T00:41:47.189Z,956.6600
2023-12-23T00:41:58.232Z,956.6600
2023-12-23T00:42:09.310Z,956.6400
2023-12-23T00:42:20.376Z,956.6400
2023-12-23T00:42:31.449Z,956.6400
2023-12-23T00:42:42.485Z,956.6400
2023-12-23T00:42:53.534Z,956.6400
2023-12-23T00:43:04.618Z,956.6400
2023-12-23T00:43:15.684Z,956.6200
2023-12-23T00:43:26.765Z,956.6800
2023-12-23T00:43:37.860Z,956.6800
2023-12-23T00:43:48.967Z,956.6600
2023-12-23T00:44:00.122Z,956.6400
2023-12-23T00:44:11.273Z,956.6400
2023-12-23T00:44:22.405Z,956.6600
2023-12-23T00:44:33.469Z,956.6400
2023-12-23T00:44:44.531Z,956.6600
2023-12-23T00:44:55.609Z,956.6600
2023-12-23T00:45:06.667Z,956.6600
2023-12-23T00:45:17.764Z,956.6600
2023-12-23T00:45:28.812Z,956.6400
2023-12-23T00:45:39.879Z,956.6600
2023-12-23T00:45:50.950Z,956.6600
2023-12-23T00:46:02.027Z,956.6600
2023-12-23T00:46:13.062Z,956.6600
2023-12-23T00:46:24.137Z,956.6400
2023-12-23T00:46:35.324Z,956.6200
2023-12-23T00:46:46.486Z,956.6200
2023-12-23T00:46:57.588Z,956.6400
2023-12-23T00:47:08.728Z,956.6400
2023-12-23T00:47:19.817Z,956.6600
2023-12-23T00:47:35.110Z,956.6600
2023-12-23T00:47:47.877Z,956.6600
2023-12-23T00:47:59.121Z,956.6400
2023-12-23T00:48:10.303Z,956.6800
2023-12-23T00:48:21.577Z,956.6800
2023-12-23T00:48:32.775Z,956.6800
2023-12-23T00:48:43.978Z,956.7000
2023-12-23T00:48:55.130Z,956.7000
2023-12-23T00:49:06.255Z,956.6800
2023-12-23T00:49:17.350Z,956.6800
2023-12-23T00:49:28.509Z,956.6800
2023-12-23T00:49:39.650Z,956.7000
2023-12-23T00:49:50.763Z,956.6800
2023-12-23T00:50:01.863Z,956.6800
2023-12-23T00:50:12.932Z,956.6800
2023-12-23T00:50:24.096Z,956.6400
2023-12-23T00:50:35.175Z,956.6800
2023-12-23T00:50:46.240Z,956.6800
2023-12-23T00:50:57.326Z,956.6600
2023-12-23T00:51:08.387Z,956.6400
2023-12-23T00:51:19.433Z,956.6400
2023-12-23T00:51:30.509Z,956.6600
2023-12-23T00:51:41.602Z,956.6800
2023-12-23T00:51:52.671Z,956.7000
2023-12-23T00:52:03.742Z,956.6800
2023-12-23T00:52:14.826Z,956.6800
2023-12-23T00:52:25.886Z,956.6800
2023-12-23T00:52:36.997Z,956.6800
2023-12-23T00:52:48.078Z,956.7000
2023-12-23T00:52:59.142Z,956.7200
2023-12-23T00:53:10.236Z,956.7200
2023-12-23T00:53:21.333Z,956.7000
2023-12-23T00:53:32.406Z,956.6800
2023-12-23T00:53:45.873Z,956.6600
2023-12-23T00:53:58.321Z,956.6800
2023-12-23T00:54:09.372Z,956.6600
2023-12-23T00:54:20.428Z,956.6600
2023-12-23T00:54:31.471Z,956.6600
2023-12-23T00:54:42.524Z,956.6400
2023-12-23T00:54:53.567Z,956.6200
2023-12-23T00:55:04.622Z,956.6400
2023-12-23T00:55:15.717Z,956.6400
2023-12-23T00:55:26.771Z,956.6400
2023-12-23T00:55:37.857Z,956.6200
2023-12-23T00:55:48.904Z,956.6600
2023-12-23T00:55:59.949Z,956.6600
2023-12-23T00:56:11.188Z,956.6600
2023-12-23T00:56:22.274Z,956.6600
2023-12-23T00:56:33.371Z,956.6800
2023-12-23T00:56:44.478Z,956.6800
2023-12-23T00:56:55.540Z,956.6800
2023-12-23T00:57:06.649Z,956.6800
2023-12-23T00:57:17.708Z,956.6800
2023-12-23T00:57:28.774Z,956.6600
2023-12-23T00:57:39.819Z,956.6800
2023-12-23T00:57:51.234Z,956.6600
2023-12-23T00:58:02.700Z,956.6600
2023-12-23T00:58:13.772Z,956.6600
2023-12-23T00:58:24.838Z,956.6800
2023-12-23T00:58:35.925Z,956.6600
2023-12-23T00:58:47.021Z,956.6600
2023-12-23T00:58:58.130Z,956.6800
2023-12-23T00:59:09.272Z,956.6800
2023-12-23T00:59:20.404Z,956.6800
2023-12-23T00:59:31.533Z,956.6800
2023-12-23T00:59:42.572Z,956.6800
2023-12-23T00:59:53.641Z,956.7000
2023-12-23T01:00:04.720Z,956.6800
2023-12-23T01:00:15.781Z,956.6800
2023-12-23T01:00:26.924Z,956.6600
2023-12-23T01:00:38.038Z,956.6600
2023-12-23T01:00:49.112Z,956.6800
2023-12-23T01:01:00.261Z,956.7000
2023-12-23T01:01:11.397Z,956.6600
2023-12-23T01:01:22.575Z,956.6800
2023-12-23T01:01:33.676Z,956.6800
2023-12-23T01:01:44.812Z,956.7000
2023-12-23T01:01:56.002Z,956.7000
2023-12-23T01:02:07.081Z,956.7200
2023-12-23T01:02:18.215Z,956.7200
2023-12-23T01:02:29.281Z,956.7200
2023-12-23T01:02:40.354Z,956.7200
2023-12-23T01:02:51.477Z,956.7600
2023-12-23T01:03:02.499Z,956.7600
2023-12-23T01:03:13.659Z,956.7600
2023-12-23T01:03:24.785Z,956.7600
2023-12-23T01:03:35.857Z,956.7600
2023-12-23T01:03:46.964Z,956.7600
2023-12-23T01:03:58.147Z,956.7800
2023-12-23T01:04:09.402Z,956.8000
2023-12-23T01:04:20.451Z,956.8200
2023-12-23T01:04:31.528Z,956.8200
2023-12-23T01:04:42.588Z,956.8200
2023-12-23T01:04:53.682Z,956.8400
2023-12-23T01:05:04.772Z,956.8600
2023-12-23T01:05:15.944Z,956.9000
2023-12-23T01:05:27.012Z,956.9000
2023-12-23T01:05:38.086Z,956.9000
2023-12-23T01:05:49.140Z,956.9200
2023-12-23T01:06:00.254Z,956.9200
2023-12-23T01:06:11.346Z,956.9200
2023-12-23T01:06:22.451Z,956.9200
2023-12-23T01:06:33.526Z,956.9000
2023-12-23T01:06:44.652Z,956.9000
2023-12-23T01:06:55.756Z,956.9200
2023-12-23T01:07:06.825Z,956.9300
2023-12-23T01:07:17.884Z,956.9300
2023-12-23T01:07:28.941Z,956.9300
2023-12-23T01:07:40.113Z,956.9300
2023-12-23T01:07:51.413Z,956.9200
2023-12-23T01:08:02.724Z,956.9200
2023-12-23T01:08:13.817Z,956.9200
2023-12-23T01:08:24.992Z,956.9300
2023-12-23T01:08:36.078Z,956.9300
2023-12-23T01:08:47.140Z,956.9200
2023-12-23T01:08:58.261Z,956.9300
2023-12-23T01:09:09.306Z,956.9500
2023-12-23T01:09:20.369Z,956.9500
2023-12-23T01:09:31.440Z,956.9300
2023-12-23T01:09:42.501Z,956.9500
2023-12-23T01:09:53.585Z,956.9500
2023-12-23T01:10:04.649Z,956.9700
2023-12-23T01:10:15.680Z,956.9700
2023-12-23T01:10:26.758Z,956.9700
2023-12-23T01:10:37.853Z,956.9700
2023-12-23T01:10:49.027Z,957.0100
2023-12-23T01:11:00.152Z,956.9900
2023-12-23T01:11:11.215Z,957.0100
2023-12-23T01:11:22.362Z,956.9900
2023-12-23T01:11:33.440Z,956.9700
2023-12-23T01:11:44.471Z,956.9700
2023-12-23T01:11:55.546Z,956.9500
2023-12-23T01:12:06.638Z,956.9700
2023-12-23T01:12:17.727Z,956.9900
2023-12-23T01:12:28.780Z,956.9900
2023-12-23T01:12:39.850Z,957.0100
2023-12-23T01:12:50.933Z,956.9900
2023-12-23T01:13:02.002Z,956.9700
2023-12-23T01:13:13.060Z,956.9900
2023-12-23T01:13:24.134Z,956.9900
2023-12-23T01:13:35.292Z,957.0100
2023-12-23T01:13:47.019Z,957.0300
2023-12-23T01:13:58.188Z,957.0500
2023-12-23T01:14:09.365Z,957.0700
2023-12-23T01:14:20.542Z,957.0500
2023-12-23T01:14:31.642Z,957.0300
2023-12-23T01:14:42.702Z,957.0300
2023-12-23T01:14:53.765Z,957.0300
2023-12-23T01:15:05.407Z,957.0300
2023-12-23T01:15:16.472Z,957.0100
2023-12-23T01:15:27.558Z,956.9900
2023-12-23T01:15:38.612Z,957.0300
2023-12-23T01:15:49.686Z,957.0100
2023-12-23T01:16:00.748Z,957.0100
2023-12-23T01:16:11.811Z,956.9900
2023-12-23T01:16:22.881Z,956.9900
2023-12-23T01:16:34.041Z,957.0100
2023-12-23T01:16:45.187Z,956.9900
2023-12-23T01:16:56.272Z,957.0100
2023-12-23T01:17:07.397Z,957.0100
2023-12-23T01:17:18.501Z,957.0300
2023-12-23T01:17:29.740Z,957.0500
2023-12-23T01:17:40.880Z,957.0900
2023-12-23T01:17:52.164Z,957.0900
2023-12-23T01:18:03.722Z,957.1100
2023-12-23T01:18:14.878Z,957.1300
2023-12-23T01:18:26.049Z,957.1100
2023-12-23T01:18:37.341Z,957.1100
2023-12-23T01:18:48.584Z,957.1100
2023-12-23T01:18:59.677Z,957.1300
2023-12-23T01:19:10.759Z,957.1500
2023-12-23T01:19:21.856Z,957.1500
2023-12-23T01:19:32.915Z,957.1500
2023-12-23T01:19:43.975Z,957.1500
2023-12-23T01:19:55.076Z,957.1700
2023-12-23T01:20:06.177Z,957.1500
2023-12-23T01:20:17.361Z,957.1700
2023-12-23T01:20:28.523Z,957.1700
2023-12-23T01:20:39.613Z,957.1900
2023-12-23T01:20:50.662Z,957.1900
2023-12-23T01:21:01.736Z,957.2100
2023-12-23T01:21:12.806Z,957.2500
2023-12-23T01:21:23.868Z,957.2700
2023-12-23T01:21:34.942Z,957.2700
2023-12-23T01:21:46.026Z,957.2700
2023-12-23T01:21:57.086Z,957.2700
2023-12-23T01:22:08.161Z,957.2700
2023-12-23T01:22:19.208Z,957.2700
2023-12-23T01:22:30.263Z,957.3100
2023-12-23T01:22:41.354Z,957.3500
2023-12-23T01:22:52.467Z,957.3700
2023-12-23T01:23:03.550Z,957.3500
2023-12-23T01:23:14.684Z,957.3500
2023-12-23T01:23:25.771Z,957.3700
2023-12-23T01:23:36.835Z,957.3700
2023-12-23T01:23:47.939Z,957.3500
2023-12-23T01:23:59.015Z,957.3500
2023-12-23T01:24:10.085Z,957.3300
2023-12-23T01:24:21.183Z,957.3500
2023-12-23T01:24:32.225Z,957.3500
2023-12-23T01:24:43.309Z,957.3700
2023-12-23T01:24:54.364Z,957.4300
2023-12-23T01:25:05.425Z,957.4500
2023-12-23T01:25:16.499Z,957.4500
2023-12-23T01:25:27.547Z,957.4500
2023-12-23T01:25:38.607Z,957.4300
2023-12-23T01:25:49.642Z,957.4100
2023-12-23T01:26:00.699Z,957.4100
2023-12-23T01:26:11.794Z,957.3900
2023-12-23T01:26:22.967Z,957.3700
2023-12-23T01:26:34.022Z,957.3700
2023-12-23T01:26:45.095Z,957.3700
2023-12-23T01:26:56.140Z,957.3700
2023-12-23T01:27:07.231Z,957.3700
2023-12-23T01:27:18.302Z,957.3500
2023-12-23T01:27:29.331Z,957.3700
2023-12-23T01:27:40.403Z,957.3900
2023-12-23T01:27:51.764Z,957.3900
2023-12-23T01:28:03.022Z,957.3900
2023-12-23T01:28:14.116Z,957.3900
2023-12-23T01:28:25.169Z,957.3900
2023-12-23T01:28:36.257Z,957.3900
2023-12-23T01:28:47.319Z,957.4100
2023-12-23T01:28:58.433Z,957.4300
2023-12-23T01:29:09.504Z,957.4300
2023-12-23T01:29:20.552Z,957.4100
2023-12-23T01:29:31.618Z,957.4300
2023-12-23T01:29:42.721Z,957.4300
2023-12-23T01:29:53.773Z,957.4100
2023-12-23T01:30:04.895Z,957.4100
2023-12-23T01:30:16.039Z,957.3900
2023-12-23T01:30:27.097Z,957.3900
2023-12-23T01:30:38.221Z,957.4100
2023-12-23T01:30:49.313Z,957.4100
2023-12-23T01:31:00.390Z,957.4100
2023-12-23T01:31:11.404Z,957.4100
2023-12-23T01:31:22.476Z,957.3700
2023-12-23T01:31:33.543Z,957.3500
2023-12-23T01:31:44.691Z,957.3700
2023-12-23T01:31:55.756Z,957.3900
2023-12-23T01:32:06.838Z,957.4100
2023-12-23T01:32:17.965Z,957.4300
2023-12-23T01:32:29.123Z,957.4500
2023-12-23T01:32:40.247Z,957.4500
2023-12-23T01:32:51.333Z,957.4100
2023-12-23T01:33:02.594Z,957.3900
2023-12-23T01:33:13.822Z,957.4300
2023-12-23T01:33:25.020Z,957.4100
2023-12-23T01:33:36.266Z,957.4100
2023-12-23T01:33:47.656Z,957.4100
2023-12-23T01:33:58.873Z,957.3900
2023-12-23T01:34:09.954Z,957.4300
2023-12-23T01:34:21.034Z,957.4700
2023-12-23T01:34:32.090Z,957.4800
2023-12-23T01:34:43.189Z,957.4500
2023-12-23T01:34:54.254Z,957.4800
2023-12-23T01:35:05.327Z,957.4800
2023-12-23T01:35:16.534Z,957.4700
2023-12-23T01:35:27.650Z,957.4700
2023-12-23T01:35:38.728Z,957.5000
2023-12-23T01:35:49.776Z,957.4800
2023-12-23T01:36:00.823Z,957.4800
2023-12-23T01:36:11.894Z,957.4500
2023-12-23T01:36:23.097Z,957.4500
2023-12-23T01:36:34.181Z,957.4700
2023-12-23T01:36:45.234Z,957.4800
2023-12-23T01:36:56.298Z,957.5000
2023-12-23T01:37:07.364Z,957.5000
2023-12-23T01:37:18.419Z,957.5000
2023-12-23T01:37:29.493Z,957.4800
2023-12-23T01:37:40.601Z,957.4300
2023-12-23T01:37:52.028Z,957.4300
2023-12-23T01:38:06.554Z,957.4500
2023-12-23T01:38:20.328Z,957.4500
2023-12-23T01:38:31.390Z,957.4800
2023-12-23T01:38:42.474Z,957.4700
2023-12-23T01:38:53.540Z,957.4700
2023-12-23T01:39:04.617Z,957.4800
2023-12-23T01:39:15.668Z,957.5000
2023-12-23T01:39:26.740Z,957.4800
2023-12-23T01:39:37.779Z,957.4700
2023-12-23T01:39:48.859Z,957.4500
2023-12-23T01:39:59.919Z,957.4500
2023-12-23T01:40:10.977Z,957.4500
2023-12-23T01:40:22.032Z,957.4700
2023-12-23T01:40:33.119Z,957.5000
2023-12-23T01:40:44.199Z,957.5000
2023-12-23T01:40:55.261Z,957.5000
2023-12-23T01:41:06.367Z,957.5000
2023-12-23T01:41:17.533Z,957.5000
2023-12-23T01:41:28.658Z,957.5400
2023-12-23T01:41:39.686Z,957.5400
2023-12-23T01:41:50.740Z,957.5400
2023-12-23T01:42:01.811Z,957.5400
2023-12-23T01:42:12.856Z,957.5400
2023-12-23T01:42:23.926Z,957.5400
2023-12-23T01:42:34.973Z,957.5600
2023-12-23T01:42:46.071Z,957.5600
2023-12-23T01:42:57.117Z,957.6000
2023-12-23T01:43:08.178Z,957.6000
2023-12-23T01:43:19.243Z,957.6000
2023-12-23T01:43:30.306Z,957.6000
2023-12-23T01:43:41.383Z,957.5800
2023-12-23T01:43:52.477Z,957.6000
2023-12-23T01:44:03.543Z,957.6000
2023-12-23T01:44:14.734Z,957.6000
2023-12-23T01:44:25.794Z,957.5800
2023-12-23T01:44:36.856Z,957.5800
2023-12-23T01:44:47.960Z,957.5800
2023-12-23T01:44:58.979Z,957.5600
2023-12-23T01:45:10.044Z,957.5600
2023-12-23T01:45:21.097Z,957.5800
2023-12-23T01:45:34.984Z,957.5800
2023-12-23T01:45:47.671Z,957.5200
2023-12-23T01:45:58.736Z,957.5200
2023-12-23T01:46:09.800Z,957.5000
2023-12-23T01:46:20.873Z,957.5200
2023-12-23T01:46:31.918Z,957.5000
2023-12-23T01:46:42.986Z,957.5200
2023-12-23T01:46:54.054Z,957.5200
2023-12-23T01:47:05.168Z,957.5200
2023-12-23T01:47:16.246Z,957.5200
2023-12-23T01:47:27.411Z,957.5200
2023-12-23T01:47:38.515Z,957.5200
2023-12-23T01:47:50.010Z,957.5000
2023-12-23T01:48:01.265Z,957.5200
2023-12-23T01:48:12.485Z,957.5400
2023-12-23T01:48:23.999Z,957.5600
2023-12-23T01:48:35.374Z,957.5800
2023-12-23T01:48:46.484Z,957.5800
2023-12-23T01:48:57.613Z,957.5800
2023-12-23T01:49:08.717Z,957.5800
2023-12-23T01:49:19.826Z,957.5800
2023-12-23T01:49:30.875Z,957.6200
2023-12-23T01:49:41.958Z,957.6200
2023-12-23T01:49:53.034Z,957.6400
2023-12-23T01:50:04.306Z,957.6400
2023-12-23T01:50:15.480Z,957.6600
2023-12-23T01:50:26.648Z,957.6400
2023-12-23T01:50:37.711Z,957.6600
2023-12-23T01:50:48.757Z,957.6600
2023-12-23T01:50:59.830Z,957.6800
2023-12-23T01:51:10.864Z,957.7200
2023-12-23T01:51:21.935Z,957.7200
2023-12-23T01:51:33.024Z,957.7600
2023-12-23T01:51:44.071Z,957.7400
2023-12-23T01:51:55.136Z,957.7400
2023-12-23T01:52:06.178Z,957.7600
2023-12-23T01:52:17.219Z,957.8000
2023-12-23T01:52:28.247Z,957.7800
2023-12-23T01:52:39.430Z,957.7800
2023-12-23T01:52:50.565Z,957.7800
2023-12-23T01:53:01.640Z,957.8200
2023-12-23T01:53:12.754Z,957.8400
2023-12-23T01:53:23.858Z,957.8800
2023-12-23T01:53:34.889Z,957.8800
2023-12-23T01:53:45.930Z,957.9000
2023-12-23T01:53:56.996Z,957.9100
2023-12-23T01:54:08.020Z,957.9100
2023-12-23T01:54:19.047Z,957.9100
2023-12-23T01:54:30.111Z,957.9500
2023-12-23T01:54:41.193Z,957.9500
2023-12-23T01:54:52.252Z,957.9300
2023-12-23T01:55:03.309Z,957.9000
2023-12-23T01:55:14.387Z,957.9000
2023-12-23T01:55:25.448Z,957.9100
2023-12-23T01:55:36.571Z,957.9500
2023-12-23T01:55:47.634Z,957.9300
2023-12-23T01:55:58.769Z,957.9100
2023-12-23T01:56:09.863Z,957.9100
2023-12-23T01:56:21.010Z,957.9100
2023-12-23T01:56:32.111Z,957.9100
2023-12-23T01:56:43.165Z,957.9100
2023-12-23T01:56:54.228Z,957.9300
2023-12-23T01:57:05.293Z,957.9500
2023-12-23T01:57:16.358Z,957.9300
2023-12-23T01:57:27.430Z,957.9300
2023-12-23T01:57:38.484Z,957.9500
2023-12-23T01:57:49.902Z,957.9500
2023-12-23T01:58:01.086Z,957.9500
2023-12-23T01:58:12.147Z,957.9500
2023-12-23T01:58:23.221Z,957.9500
2023-12-23T01:58:34.249Z,957.9500
2023-12-23T01:58:45.343Z,957.9300
2023-12-23T01:58:56.429Z,957.9100
2023-12-23T01:59:07.521Z,957.9100
2023-12-23T01:59:18.605Z,957.9100
2023-12-23T01:59:29.661Z,957.9100
2023-12-23T01:59:40.733Z,957.9100
2023-12-23T01:59:51.796Z,957.9000
2023-12-23T02:00:02.858Z,957.8800
2023-12-23T02:00:13.971Z,957.8800
2023-12-23T02:00:25.042Z,957.8600
2023-12-23T02:00:36.209Z,957.8600
2023-12-23T02:00:47.347Z,957.8400
2023-12-23T02:00:58.522Z,957.8200
2023-12-23T02:01:09.692Z,957.8200
2023-12-23T02:01:20.894Z,957.8400
2023-12-23T02:01:32.085Z,957.8600
2023-12-23T02:01:43.260Z,957.8600
2023-12-23T02:01:54.441Z,957.8600
2023-12-23T02:02:05.662Z,957.8600
2023-12-23T02:02:16.859Z,957.8600
2023-12-23T02:02:28.478Z,957.8200
2023-12-23T02:02:39.999Z,957.8200
2023-12-23T02:02:52.031Z,957.8200
2023-12-23T02:03:03.674Z,957.8000
2023-12-23T02:03:14.778Z,957.7800
2023-12-23T02:03:25.827Z,957.7800
2023-12-23T02:03:36.957Z,957.7800
2023-12-23T02:03:48.074Z,957.7800
2023-12-23T02:03:59.156Z,957.7800
2023-12-23T02:04:10.212Z,957.7800
2023-12-23T02:04:21.292Z,957.7800
2023-12-23T02:04:32.361Z,957.7600
2023-12-23T02:04:43.481Z,957.7600
2023-12-23T02:04:54.566Z,957.7800
2023-12-23T02:05:05.853Z,957.7800
2023-12-23T02:05:16.989Z,957.7800
2023-12-23T02:05:28.120Z,957.7800
2023-12-23T02:05:39.305Z,957.7800
2023-12-23T02:05:50.588Z,957.7800
2023-12-23T02:06:01.746Z,957.7800
2023-12-23T02:06:12.925Z,957.7800
2023-12-23T02:06:24.141Z,957.8000
2023-12-23T02:06:35.210Z,957.8000
2023-12-23T02:06:46.286Z,957.7800
2023-12-23T02:06:57.341Z,957.7600
2023-12-23T02:07:08.418Z,957.7600
2023-12-23T02:07:19.453Z,957.7600
2023-12-23T02:07:30.494Z,957.7600
2023-12-23T02:07:41.561Z,957.7800
2023-12-23T02:07:52.630Z,957.7800
2023-12-23T02:08:03.709Z,957.8000
2023-12-23T02:08:14.920Z,957.7800
2023-12-23T02:08:25.959Z,957.7800
2023-12-23T02:08:37.037Z,957.7800
2023-12-23T02:08:48.101Z,957.8000
2023-12-23T02:08:59.170Z,957.7800
2023-12-23T02:09:10.250Z,957.7800
2023-12-23T02:09:21.320Z,957.8000
2023-12-23T02:09:32.359Z,957.8000
2023-12-23T02:09:43.421Z,957.8200
2023-12-23T02:09:54.470Z,957.8200
2023-12-23T02:10:05.642Z,957.8200
2023-12-23T02:10:16.690Z,957.8200
2023-12-23T02:10:27.870Z,957.8200
2023-12-23T02:10:38.961Z,957.8200
2023-12-23T02:10:50.116Z,957.8000
2023-12-23T02:11:01.229Z,957.8000
2023-12-23T02:11:12.304Z,957.8000